createdAt,value
2022-09-10T00:01:08.171Z,99352.34
2022-09-10T00:03:35.936Z,99351.53
2022-09-10T00:06:08.662Z,99345.88
2022-09-10T00:08:36.360Z,99344.31
2022-09-10T00:11:08.659Z,99342.06
2022-09-10T00:13:37.622Z,99329.94
2022-09-10T00:16:08.671Z,99343.38
2022-09-10T00:18:37.172Z,99325.69
2022-09-10T00:21:10.741Z,99334.00
2022-09-10T00:23:38.992Z,99328.06
2022-09-10T00:26:13.957Z,99327.00
2022-09-10T00:28:42.125Z,99337.56
2022-09-10T00:31:10.494Z,99326.75
2022-09-10T00:33:37.845Z,99336.19
2022-09-10T00:36:15.935Z,99333.91
2022-09-10T00:38:43.086Z,99324.84
2022-09-10T00:41:16.884Z,99324.94
2022-09-10T00:44:04.242Z,99314.31
2022-09-10T00:46:42.330Z,99326.72
2022-09-10T00:49:15.926Z,99333.69
2022-09-10T00:51:46.352Z,99330.94
2022-09-10T00:54:19.398Z,99322.47
2022-09-10T00:56:47.823Z,99326.94
2022-09-10T00:59:19.718Z,99333.31
2022-09-10T01:01:48.322Z,99340.16
2022-09-10T01:04:19.472Z,99335.94
2022-09-10T01:06:51.650Z,99327.41
2022-09-10T01:09:21.615Z,99317.47
2022-09-10T01:12:12.967Z,99322.47
2022-09-10T01:15:12.026Z,99321.81
2022-09-10T01:18:01.049Z,99329.59
2022-09-10T01:21:03.107Z,99331.19
2022-09-10T01:24:21.267Z,99323.59
2022-09-10T01:27:32.927Z,99333.28
2022-09-10T01:30:08.547Z,99328.84
2022-09-10T01:32:55.976Z,99323.38
2022-09-10T01:35:37.130Z,99322.13
2022-09-10T01:38:12.221Z,99320.06
2022-09-10T01:40:47.298Z,99325.16
2022-09-10T01:43:27.111Z,99328.38
2022-09-10T01:46:21.089Z,99328.69
2022-09-10T01:49:11.926Z,99327.88
2022-09-10T01:52:01.009Z,99331.75
2022-09-10T01:54:46.210Z,99320.25
2022-09-10T01:57:30.352Z,99331.03
2022-09-10T02:00:09.527Z,99323.31
2022-09-10T02:02:51.382Z,99320.06
2022-09-10T02:05:22.739Z,99321.03
2022-09-10T02:08:01.270Z,99314.81
2022-09-10T02:10:29.948Z,99320.06
2022-09-10T02:12:57.039Z,99310.53
2022-09-10T02:15:45.675Z,99309.31
2022-09-10T02:18:26.398Z,99314.16
2022-09-10T02:20:58.049Z,99310.00
2022-09-10T02:23:32.332Z,99306.69
2022-09-10T02:25:59.445Z,99324.91
2022-09-10T02:28:29.141Z,99312.78
2022-09-10T02:30:57.625Z,99332.50
2022-09-10T02:33:26.548Z,99330.56
2022-09-10T02:35:54.429Z,99329.19
2022-09-10T02:38:21.955Z,99327.47
2022-09-10T02:40:49.426Z,99328.59
2022-09-10T02:43:17.527Z,99325.63
2022-09-10T02:45:44.587Z,99324.88
2022-09-10T02:48:13.412Z,99328.84
2022-09-10T02:50:44.519Z,99322.09
2022-09-10T02:53:11.444Z,99318.28
2022-09-10T02:55:38.475Z,99314.53
2022-09-10T02:58:05.391Z,99319.03
2022-09-10T03:00:32.339Z,99323.91
2022-09-10T03:03:03.074Z,99315.22
2022-09-10T03:05:32.300Z,99314.75
2022-09-10T03:08:02.883Z,99305.09
2022-09-10T03:10:44.217Z,99316.50
2022-09-10T03:13:11.514Z,99319.81
2022-09-10T03:15:42.589Z,99313.94
2022-09-10T03:18:40.415Z,99312.53
2022-09-10T03:21:20.396Z,99318.63
2022-09-10T03:23:51.977Z,99312.44
2022-09-10T03:26:24.669Z,99315.00
2022-09-10T03:28:52.782Z,99298.59
2022-09-10T03:31:22.825Z,99305.38
2022-09-10T03:33:53.264Z,99312.59
2022-09-10T03:36:26.998Z,99304.44
2022-09-10T03:38:54.214Z,99303.47
2022-09-10T03:41:21.228Z,99307.28
2022-09-10T03:43:48.293Z,99308.91
2022-09-10T03:46:15.617Z,99303.19
2022-09-10T03:48:51.023Z,99301.63
2022-09-10T03:51:27.061Z,99297.88
2022-09-10T03:54:07.847Z,99302.59
2022-09-10T03:56:35.584Z,99290.84
2022-09-10T03:59:02.695Z,99304.97
2022-09-10T04:01:29.794Z,99291.47
2022-09-10T04:03:57.528Z,99305.38
2022-09-10T04:06:28.447Z,99304.69
2022-09-10T04:09:04.840Z,99300.56
2022-09-10T04:11:31.973Z,99308.91
2022-09-10T04:13:58.914Z,99302.56
2022-09-10T04:16:27.644Z,99291.78
2022-09-10T04:18:55.019Z,99310.38
2022-09-10T04:21:22.208Z,99315.88
2022-09-10T04:23:55.059Z,99311.59
2022-09-10T04:27:12.243Z,99317.22
2022-09-10T04:29:18.466Z,99320.00
2022-09-10T04:31:46.360Z,99314.47
2022-09-10T04:34:16.930Z,99310.72
2022-09-10T04:36:44.145Z,99311.44
2022-09-10T04:39:14.282Z,99308.44
2022-09-10T04:41:41.979Z,99317.91
2022-09-10T04:44:09.636Z,99317.69
2022-09-10T04:46:39.104Z,99301.88
2022-09-10T04:49:20.679Z,99331.56
2022-09-10T04:51:48.178Z,99310.84
2022-09-10T04:54:24.888Z,99318.59
2022-09-10T04:56:52.334Z,99324.25
2022-09-10T04:59:21.337Z,99329.03
2022-09-10T05:01:48.537Z,99324.09
2022-09-10T05:04:16.824Z,99329.34
2022-09-10T05:06:47.905Z,99318.44
2022-09-10T05:09:17.299Z,99338.47
2022-09-10T05:11:49.025Z,99322.47
2022-09-10T05:14:17.793Z,99314.78
2022-09-10T05:16:46.538Z,99320.97
2022-09-10T05:19:13.609Z,99330.53
2022-09-10T05:21:56.555Z,99302.84
2022-09-10T05:24:23.943Z,99315.06
2022-09-10T05:26:53.348Z,99327.44
2022-09-10T05:29:20.292Z,99328.28
2022-09-10T05:31:47.455Z,99327.97
2022-09-10T05:34:19.302Z,99339.41
2022-09-10T05:37:21.150Z,99340.53
2022-09-10T05:39:49.570Z,99339.88
2022-09-10T05:45:57.887Z,99341.22
2022-09-10T05:48:27.823Z,99327.19
2022-09-10T05:50:55.848Z,99339.13
2022-09-10T05:57:25.415Z,99331.84
2022-09-10T06:00:55.875Z,99337.50
2022-09-10T08:31:36.819Z,99456.06
2022-09-10T08:34:23.207Z,99441.25
2022-09-10T08:37:21.698Z,99440.94
2022-09-10T08:39:55.874Z,99444.28
2022-09-10T08:42:36.762Z,99445.25
2022-09-10T08:45:14.473Z,99448.41
2022-09-10T08:47:55.954Z,99448.91
2022-09-10T08:50:36.636Z,99447.09
2022-09-10T08:53:23.900Z,99463.59
2022-09-10T08:55:55.107Z,99464.06
2022-09-10T08:58:34.581Z,99460.81
2022-09-10T09:01:04.703Z,99461.81
2022-09-10T09:03:42.398Z,99470.03
2022-09-10T09:06:26.941Z,99469.69
2022-09-10T09:08:55.499Z,99470.69
2022-09-10T09:11:42.192Z,99464.75
2022-09-10T09:14:40.081Z,99471.66
2022-09-10T09:17:43.618Z,99464.59
2022-09-10T09:20:25.393Z,99473.78
2022-09-10T09:23:19.410Z,99475.88
2022-09-10T09:25:50.349Z,99462.94
2022-09-10T09:28:33.780Z,99457.81
2022-09-10T09:31:12.873Z,99475.22
2022-09-10T09:33:42.737Z,99470.97
2022-09-10T09:36:18.074Z,99467.78
2022-09-10T09:38:49.481Z,99466.44
2022-09-10T09:41:30.982Z,99467.94
2022-09-10T09:44:06.108Z,99458.16
2022-09-10T09:46:33.569Z,99467.78
2022-09-10T09:49:03.298Z,99470.44
2022-09-10T09:51:36.068Z,99463.66
2022-09-10T09:54:46.589Z,99458.06
2022-09-10T09:56:59.702Z,99464.94
2022-09-10T09:59:29.623Z,99461.72
2022-09-10T10:02:05.085Z,99456.16
2022-09-10T10:04:32.308Z,99449.94
2022-09-10T10:07:02.189Z,99465.63
2022-09-10T10:09:32.252Z,99454.16
2022-09-10T10:12:01.314Z,99467.13
2022-09-10T10:14:40.919Z,99465.00
2022-09-10T10:17:34.373Z,99463.31
2022-09-10T10:20:12.363Z,99460.25
2022-09-10T10:22:42.841Z,99460.44
2022-09-10T10:25:37.581Z,99459.47
2022-09-10T10:28:20.120Z,99450.50
2022-09-10T10:30:52.642Z,99457.91
2022-09-10T10:33:31.498Z,99460.13
2022-09-10T10:36:14.036Z,99441.31
2022-09-10T10:39:03.428Z,99430.94
2022-09-10T10:41:53.961Z,99443.34
2022-09-10T10:44:48.227Z,99429.19
2022-09-10T10:47:38.958Z,99414.41
2022-09-10T10:50:25.185Z,99442.13
2022-09-10T10:53:14.682Z,99429.25
2022-09-10T10:55:55.577Z,99428.50
2022-09-10T10:58:53.924Z,99438.91
2022-09-10T11:01:24.618Z,99428.31
2022-09-10T11:04:02.199Z,99420.34
2022-09-10T11:06:44.209Z,99430.34
2022-09-10T11:09:23.083Z,99415.56
2022-09-10T11:11:58.756Z,99432.38
2022-09-10T11:14:35.164Z,99425.47
2022-09-10T11:17:12.128Z,99412.97
2022-09-10T11:19:56.509Z,99415.22
2022-09-10T11:22:44.263Z,99407.63
2022-09-10T11:25:23.669Z,99417.25
2022-09-10T11:28:01.407Z,99421.63
2022-09-10T11:30:31.793Z,99417.63
2022-09-10T11:33:11.288Z,99419.44
2022-09-10T11:35:47.698Z,99419.53
2022-09-10T11:38:24.372Z,99430.94
2022-09-10T11:41:08.976Z,99429.44
2022-09-10T11:43:47.226Z,99426.16
2022-09-10T11:46:21.158Z,99413.09
2022-09-10T11:48:57.712Z,99409.25
2022-09-10T11:51:29.888Z,99408.25
2022-09-10T11:53:57.598Z,99411.66
2022-09-10T11:56:50.703Z,99413.22
2022-09-10T11:59:41.077Z,99407.53
2022-09-10T12:02:58.663Z,99407.75
2022-09-10T12:05:37.288Z,99401.78
2022-09-10T12:08:24.047Z,99397.38
2022-09-10T12:11:12.259Z,99397.41
2022-09-10T12:13:39.932Z,99392.50
2022-09-10T12:16:24.923Z,99403.09
2022-09-10T12:18:57.682Z,99402.63
2022-09-10T12:21:33.959Z,99388.56
2022-09-10T12:24:17.783Z,99382.00
2022-09-10T12:26:45.277Z,99399.69
2022-09-10T12:29:33.358Z,99392.94
2022-09-10T12:32:32.045Z,99392.03
2022-09-10T12:35:44.839Z,99380.53
2022-09-10T12:38:50.553Z,99392.50
2022-09-10T12:42:26.836Z,99388.88
2022-09-10T12:44:53.931Z,99378.09
2022-09-10T12:47:50.761Z,99385.25
2022-09-10T12:50:33.345Z,99383.72
2022-09-10T12:54:01.334Z,99376.13
2022-09-10T12:56:49.821Z,99361.56
2022-09-10T12:59:46.042Z,99365.38
2022-09-10T13:02:28.526Z,99373.09
2022-09-10T13:05:02.987Z,99377.84
2022-09-10T13:07:37.405Z,99361.38
2022-09-10T13:10:21.733Z,99363.25
2022-09-10T13:12:55.450Z,99356.50
2022-09-10T13:15:41.077Z,99345.34
2022-09-10T13:18:30.797Z,99366.94
2022-09-10T13:21:38.592Z,99359.75
2022-09-10T13:25:04.723Z,99365.41
2022-09-10T13:27:40.615Z,99363.06
2022-09-10T13:30:28.306Z,99371.03
2022-09-10T13:33:00.948Z,99362.19
2022-09-10T13:36:03.285Z,99354.81
2022-09-10T13:39:06.840Z,99368.50
2022-09-10T13:42:10.021Z,99363.75
2022-09-10T13:45:07.657Z,99363.03
2022-09-10T13:47:42.337Z,99369.47
2022-09-10T13:50:17.654Z,99359.81
2022-09-10T13:52:49.609Z,99373.75
2022-09-10T13:55:24.438Z,99366.16
2022-09-10T13:57:57.084Z,99374.38
2022-09-10T14:00:28.903Z,99379.69
2022-09-10T14:02:58.813Z,99366.44
2022-09-10T14:05:33.408Z,99375.06
2022-09-10T14:08:07.498Z,99373.16
2022-09-10T14:10:52.081Z,99370.34
2022-09-10T14:13:29.257Z,99356.97
2022-09-10T14:16:00.900Z,99371.09
2022-09-10T14:18:39.540Z,99367.56
2022-09-10T14:21:07.166Z,99361.13
2022-09-10T14:23:36.429Z,99371.09
2022-09-10T14:26:16.399Z,99377.16
2022-09-10T14:28:53.786Z,99357.31
2022-09-10T14:31:30.514Z,99372.31
2022-09-10T14:33:59.396Z,99386.06
2022-09-10T14:36:34.381Z,99398.31
2022-09-10T14:39:15.859Z,99404.06
2022-09-10T14:41:45.476Z,99394.66
2022-09-10T14:44:16.747Z,99393.53
2022-09-10T14:46:51.703Z,99391.72
2022-09-10T14:49:26.075Z,99386.16
2022-09-10T14:51:53.409Z,99374.03
2022-09-10T14:54:20.472Z,99371.88
2022-09-10T14:56:49.109Z,99370.09
2022-09-10T14:59:23.511Z,99377.66
2022-09-10T15:01:50.730Z,99380.81
2022-09-10T15:04:22.961Z,99376.22
2022-09-10T15:06:53.005Z,99377.63
2022-09-10T15:09:21.369Z,99375.38
2022-09-10T15:11:56.608Z,99385.03
2022-09-10T15:14:23.853Z,99381.31
2022-09-10T15:16:51.723Z,99382.19
2022-09-10T15:19:18.796Z,99388.91
2022-09-10T15:21:46.423Z,99387.19
2022-09-10T15:24:15.620Z,99391.44
2022-09-10T15:26:43.304Z,99387.31
2022-09-10T15:29:13.987Z,99399.72
2022-09-10T15:31:42.222Z,99388.44
2022-09-10T15:34:11.656Z,99408.75
2022-09-10T15:36:41.412Z,99405.34
2022-09-10T15:39:12.667Z,99406.25
2022-09-10T15:41:43.776Z,99410.50
2022-09-10T15:44:13.042Z,99404.66
2022-09-10T15:46:43.654Z,99399.69
2022-09-10T15:49:21.886Z,99374.13
2022-09-10T15:52:18.097Z,99369.53
2022-09-10T15:54:52.210Z,99380.03
2022-09-10T15:57:19.234Z,99393.47
2022-09-10T15:59:47.530Z,99407.56
2022-09-10T16:02:14.579Z,99402.34
2022-09-10T16:04:43.192Z,99400.88
2022-09-10T16:07:10.863Z,99385.25
2022-09-10T16:09:41.404Z,99384.00
2022-09-10T16:12:11.060Z,99396.41
2022-09-10T16:14:43.001Z,99400.22
2022-09-10T16:17:11.577Z,99398.84
2022-09-10T16:19:38.985Z,99398.75
2022-09-10T16:22:06.313Z,99406.22
2022-09-10T16:24:33.084Z,99410.34
2022-09-10T16:27:02.661Z,99413.69
2022-09-10T16:29:29.625Z,99404.03
2022-09-10T16:31:56.887Z,99412.66
2022-09-10T16:34:26.899Z,99404.38
2022-09-10T16:37:23.015Z,99393.09
2022-09-10T16:40:00.787Z,99404.13
2022-09-10T16:42:27.920Z,99418.75
2022-09-10T16:44:55.257Z,99412.19
2022-09-10T16:47:22.662Z,99410.72
2022-09-10T16:49:55.236Z,99413.84
2022-09-10T16:52:27.146Z,99400.69
2022-09-10T16:54:54.048Z,99420.16
2022-09-10T16:57:23.767Z,99407.63
2022-09-10T16:59:50.728Z,99415.94
2022-09-10T17:02:17.631Z,99422.06
2022-09-10T17:04:47.640Z,99427.66
2022-09-10T17:07:15.870Z,99419.06
2022-09-10T17:09:42.831Z,99422.00
2022-09-10T17:12:09.709Z,99419.72
2022-09-10T17:14:37.088Z,99423.03
2022-09-10T17:17:05.168Z,99441.84
2022-09-10T17:19:35.816Z,99424.19
2022-09-10T17:22:04.220Z,99415.81
2022-09-10T17:24:32.665Z,99443.38
2022-09-10T17:26:59.766Z,99426.94
2022-09-10T17:29:29.935Z,99415.41
2022-09-10T17:31:56.806Z,99418.38
2022-09-10T17:34:23.840Z,99429.59
2022-09-10T17:36:50.938Z,99422.38
2022-09-10T17:39:18.213Z,99423.50
2022-09-10T17:41:47.672Z,99430.28
2022-09-10T17:44:16.872Z,99422.22
2022-09-10T17:46:43.964Z,99430.13
2022-09-10T17:49:14.015Z,99419.25
2022-09-10T17:51:42.605Z,99426.81
2022-09-10T17:54:10.683Z,99412.50
2022-09-10T17:56:37.830Z,99437.06
2022-09-10T17:59:06.805Z,99445.31
2022-09-10T18:01:37.010Z,99450.25
2022-09-10T18:04:04.406Z,99462.78
2022-09-10T18:06:34.348Z,99459.31
2022-09-10T18:09:01.481Z,99455.22
2022-09-10T18:11:33.326Z,99459.81
2022-09-10T18:14:03.007Z,99465.75
2022-09-10T18:16:36.498Z,99469.03
2022-09-10T18:19:09.159Z,99466.06
2022-09-10T18:21:42.463Z,99449.72
2022-09-10T18:24:13.608Z,99467.06
2022-09-10T18:26:44.404Z,99467.06
2022-09-10T18:29:14.734Z,99472.66
2022-09-10T18:31:45.993Z,99475.63
2022-09-10T18:34:22.975Z,99470.31
2022-09-10T18:36:52.520Z,99466.34
2022-09-10T18:39:20.038Z,99469.00
2022-09-10T18:41:47.696Z,99469.28
2022-09-10T18:44:19.383Z,99463.47
2022-09-10T18:46:50.112Z,99473.22
2022-09-10T18:49:21.477Z,99467.94
2022-09-10T18:51:49.291Z,99482.22
2022-09-10T18:54:18.274Z,99474.75
2022-09-10T18:56:48.552Z,99467.34
2022-09-10T18:59:18.102Z,99467.81
2022-09-10T19:01:46.098Z,99471.06
2022-09-10T19:04:20.481Z,99479.84
2022-09-10T19:06:50.085Z,99472.72
2022-09-10T19:09:20.183Z,99464.28
2022-09-10T19:11:50.471Z,99476.25
2022-09-10T19:14:22.631Z,99469.31
2022-09-10T19:16:51.962Z,99475.22
2022-09-10T19:19:23.016Z,99474.00
2022-09-10T19:21:55.572Z,99482.75
2022-09-10T19:24:37.832Z,99494.34
2022-09-10T19:27:10.244Z,99485.94
2022-09-10T19:29:52.097Z,99486.78
2022-09-10T19:32:37.626Z,99477.97
2022-09-10T19:35:19.175Z,99493.72
2022-09-10T19:38:36.710Z,99485.13
2022-09-10T19:41:17.135Z,99496.09
2022-09-10T19:43:50.102Z,99471.31
2022-09-10T19:46:22.972Z,99472.34
2022-09-10T19:48:52.272Z,99499.38
2022-09-10T19:51:21.949Z,99484.50
